createdAt,value
2023-10-23T00:03:54.446Z,98111.66
2023-10-23T00:06:21.297Z,98105.09
2023-10-23T00:08:48.018Z,98104.50
2023-10-23T00:11:28.636Z,98102.19
2023-10-23T00:16:30.350Z,98106.09
2023-10-23T00:18:57.233Z,98107.78
2023-10-23T00:21:24.318Z,98102.81
2023-10-23T00:23:51.550Z,98104.50
2023-10-23T00:26:18.773Z,98103.34
2023-10-23T00:28:45.464Z,98113.16
2023-10-23T00:31:12.190Z,98118.66
2023-10-23T00:33:39.030Z,98132.84
2023-10-23T00:48:51.949Z,98128.78
2023-10-23T00:51:20.913Z,98131.09
2023-10-23T00:53:48.442Z,98130.31
2023-10-23T00:56:15.455Z,98126.84
2023-10-23T00:58:43.969Z,98120.63
2023-10-23T01:03:57.627Z,98118.91
2023-10-23T01:06:24.395Z,98128.34
2023-10-23T01:08:51.161Z,98120.38
2023-10-23T01:11:17.937Z,98122.97
2023-10-23T01:13:44.703Z,98125.50
2023-10-23T01:16:11.690Z,98110.44
2023-10-23T01:18:38.592Z,98119.75
2023-10-23T01:21:05.368Z,98112.53
2023-10-23T01:23:37.650Z,98107.66
2023-10-23T01:26:04.811Z,98104.97
2023-10-23T01:28:31.647Z,98107.53
2023-10-23T01:30:58.480Z,98108.66
2023-10-23T01:33:25.713Z,98099.63
2023-10-23T01:35:52.543Z,98112.81
2023-10-23T01:38:19.831Z,98111.94
2023-10-23T01:40:46.589Z,98113.22
2023-10-23T01:43:13.449Z,98108.09
2023-10-23T01:48:28.123Z,98120.88
2023-10-23T01:50:54.916Z,98116.59
2023-10-23T01:53:21.665Z,98114.94
2023-10-23T01:55:48.450Z,98113.84
2023-10-23T02:21:05.801Z,98108.97
2023-10-23T02:23:48.923Z,98098.38
2023-10-23T02:26:20.342Z,98103.09
2023-10-23T02:28:47.091Z,98098.16
2023-10-23T02:31:14.086Z,98105.25
2023-10-23T02:36:16.573Z,98101.03
2023-10-23T02:38:44.091Z,98103.81
2023-10-23T02:41:10.819Z,98105.66
2023-10-23T02:43:37.596Z,98106.28
2023-10-23T02:46:05.931Z,98107.13
2023-10-23T02:48:32.819Z,98109.00
2023-10-23T02:50:59.988Z,98106.19
2023-10-23T02:53:26.766Z,98115.84
2023-10-23T02:55:53.484Z,98111.78
2023-10-23T02:58:20.368Z,98110.88
2023-10-23T03:00:47.140Z,98114.75
2023-10-23T03:06:00.683Z,98118.81
2023-10-23T03:08:27.392Z,98116.38
2023-10-23T03:10:54.087Z,98110.66
2023-10-23T03:13:20.792Z,98115.94
2023-10-23T03:15:47.764Z,98112.75
2023-10-23T03:18:14.524Z,98110.50
2023-10-23T03:20:42.120Z,98122.06
2023-10-23T03:23:09.864Z,98119.28
2023-10-23T03:25:36.531Z,98116.78
2023-10-23T03:28:03.251Z,98121.19
2023-10-23T03:33:01.314Z,98116.56
2023-10-23T03:40:36.631Z,98121.91
2023-10-23T03:43:03.400Z,98114.41
2023-10-23T03:48:04.519Z,98112.16
2023-10-23T03:50:31.898Z,98103.72
2023-10-23T03:52:59.287Z,98119.47
2023-10-23T03:55:26.521Z,98108.88
2023-10-23T03:57:53.426Z,98103.63
2023-10-23T04:00:20.336Z,98100.31
2023-10-23T04:02:47.471Z,98101.56
2023-10-23T04:05:14.502Z,98102.28
2023-10-23T04:07:41.204Z,98098.28
2023-10-23T04:10:09.625Z,98102.00
2023-10-23T04:15:14.618Z,98098.78
2023-10-23T04:17:41.410Z,98099.53
2023-10-23T04:20:09.127Z,98090.88
2023-10-23T04:22:35.925Z,98095.63
2023-10-23T04:25:02.691Z,98091.47
2023-10-23T04:27:29.563Z,98092.59
2023-10-23T04:29:58.687Z,98090.22
2023-10-23T04:32:25.381Z,98083.00
2023-10-23T04:34:52.064Z,98085.19
2023-10-23T04:39:56.839Z,98079.75
2023-10-23T04:42:23.636Z,98075.81
2023-10-23T04:44:50.437Z,98082.38
2023-10-23T04:47:17.204Z,98085.09
2023-10-23T04:49:43.946Z,98078.63
2023-10-23T04:52:10.800Z,98077.91
2023-10-23T04:54:37.641Z,98083.09
2023-10-23T04:57:04.603Z,98072.97
2023-10-23T04:59:31.346Z,98079.59
2023-10-23T05:01:58.100Z,98077.22
2023-10-23T05:04:24.941Z,98073.81
2023-10-23T05:06:51.866Z,98070.31
2023-10-23T05:09:18.979Z,98073.91
2023-10-23T05:11:45.701Z,98071.78
2023-10-23T05:16:44.722Z,98065.78
2023-10-23T05:19:11.449Z,98063.31
2023-10-23T05:21:39.009Z,98047.78
2023-10-23T05:24:06.092Z,98052.44
2023-10-23T05:26:32.826Z,98054.31
2023-10-23T05:28:59.527Z,98061.47
2023-10-23T05:31:26.332Z,98068.81
2023-10-23T05:33:53.447Z,98065.00
2023-10-23T05:36:20.288Z,98070.03
2023-10-23T05:38:47.038Z,98071.78
2023-10-23T05:41:15.712Z,98070.91
2023-10-23T05:43:42.454Z,98065.03
2023-10-23T05:46:09.268Z,98067.59
2023-10-23T05:48:38.022Z,98073.66
2023-10-23T05:51:06.943Z,98080.91
2023-10-23T05:53:34.572Z,98072.16
2023-10-23T05:56:05.696Z,98084.69
2023-10-23T05:58:35.501Z,98095.38
2023-10-23T06:01:09.970Z,98095.41
2023-10-23T06:03:37.519Z,98099.00
2023-10-23T06:06:04.959Z,98109.22
2023-10-23T06:08:31.973Z,98112.72
2023-10-23T06:10:58.748Z,98105.91
2023-10-23T06:13:25.504Z,98105.09
2023-10-23T06:15:53.285Z,98104.50
2023-10-23T06:18:20.347Z,98104.69
2023-10-23T06:20:47.072Z,98103.00
2023-10-23T06:23:13.835Z,98097.94
2023-10-23T06:25:41.221Z,98097.56
2023-10-23T06:28:08.302Z,98093.63
2023-10-23T06:30:36.563Z,98083.81
2023-10-23T06:33:04.214Z,98086.91
2023-10-23T06:35:31.412Z,98087.06
2023-10-23T06:37:58.166Z,98091.63
2023-10-23T06:40:24.917Z,98088.22
2023-10-23T06:42:51.639Z,98080.00
2023-10-23T06:45:18.485Z,98074.91
2023-10-23T06:47:49.437Z,98082.53
2023-10-23T06:50:17.343Z,98085.06
2023-10-23T06:52:45.007Z,98095.84
2023-10-23T06:55:12.053Z,98093.56
2023-10-23T06:57:38.791Z,98088.09
2023-10-23T07:00:07.964Z,98098.41
2023-10-23T07:02:34.873Z,98102.16
2023-10-23T07:05:01.786Z,98094.16
2023-10-23T07:07:30.745Z,98084.78
2023-10-23T07:10:01.768Z,98073.84
2023-10-23T07:12:29.072Z,98067.53
2023-10-23T07:14:56.041Z,98060.63
2023-10-23T07:17:22.826Z,98061.53
2023-10-23T07:19:49.573Z,98051.59
2023-10-23T07:22:16.287Z,98068.72
2023-10-23T07:27:16.728Z,98066.09
2023-10-23T07:29:46.346Z,98064.59
2023-10-23T07:32:13.369Z,98055.22
2023-10-23T07:34:40.068Z,98051.00
2023-10-23T07:37:07.022Z,98053.78
2023-10-23T07:39:36.158Z,98055.28
2023-10-23T07:42:04.222Z,98039.50
2023-10-23T07:44:31.042Z,98041.88
2023-10-23T07:46:57.831Z,98042.66
2023-10-23T07:49:24.988Z,98033.22
2023-10-23T07:51:54.407Z,98040.84
2023-10-23T07:54:21.835Z,98034.00
2023-10-23T07:56:48.729Z,98022.91
2023-10-23T07:59:15.565Z,98024.91
2023-10-23T08:01:42.377Z,98026.13
2023-10-23T08:04:10.256Z,98031.03
2023-10-23T08:06:37.417Z,98034.97
2023-10-23T08:09:05.153Z,98031.69
2023-10-23T08:11:32.016Z,98027.22
2023-10-23T08:13:59.878Z,98021.78
2023-10-23T08:16:26.939Z,98020.03
2023-10-23T08:18:53.908Z,98027.91
2023-10-23T08:21:23.047Z,98029.50
2023-10-23T08:23:54.505Z,98023.03
2023-10-23T08:29:02.680Z,98017.28
2023-10-23T08:34:00.498Z,98003.97
2023-10-23T08:38:58.595Z,98016.19
2023-10-23T08:41:27.212Z,98017.00
2023-10-23T08:43:57.384Z,98015.84
2023-10-23T08:46:33.772Z,98012.91
2023-10-23T08:49:04.330Z,98013.28
2023-10-23T08:51:32.586Z,98018.34
2023-10-23T08:54:11.089Z,98021.75
2023-10-23T08:56:42.744Z,98027.13
2023-10-23T08:59:16.995Z,98017.88
2023-10-23T09:04:20.811Z,98024.63
2023-10-23T09:06:49.069Z,98011.75
2023-10-23T09:09:17.076Z,98023.16
2023-10-23T09:11:45.583Z,98011.50
2023-10-23T09:14:24.919Z,98008.44
2023-10-23T09:16:53.165Z,98006.59
2023-10-23T09:19:34.110Z,97995.22
2023-10-23T09:22:01.372Z,97991.44
2023-10-23T09:24:28.272Z,97975.47
2023-10-23T09:26:55.043Z,97977.56
2023-10-23T09:29:25.665Z,97982.28
2023-10-23T09:34:32.593Z,97989.47
2023-10-23T09:36:59.449Z,97977.72
2023-10-23T09:39:26.194Z,97983.25
2023-10-23T09:41:54.334Z,97984.06
2023-10-23T09:44:22.580Z,97990.34
2023-10-23T09:46:52.213Z,97992.41
2023-10-23T09:49:22.120Z,97995.25
2023-10-23T09:51:51.495Z,97992.88
2023-10-23T09:54:21.529Z,97997.72
2023-10-23T09:56:52.543Z,97999.25
2023-10-23T09:59:26.584Z,98004.72
2023-10-23T10:01:58.510Z,98001.63
2023-10-23T10:04:35.355Z,98004.13
2023-10-23T10:07:09.087Z,98003.28
2023-10-23T10:09:36.173Z,97992.00
2023-10-23T10:12:05.039Z,97993.97
2023-10-23T10:14:32.962Z,97986.94
2023-10-23T10:17:01.201Z,97983.03
2023-10-23T10:19:28.624Z,97977.13
2023-10-23T10:22:08.166Z,97983.78
2023-10-23T10:24:37.024Z,97973.66
2023-10-23T10:27:05.122Z,97969.81
2023-10-23T10:29:32.785Z,97972.16
2023-10-23T10:32:14.111Z,97966.78
2023-10-23T10:34:46.944Z,97962.06
2023-10-23T10:39:48.028Z,97950.78
2023-10-23T10:42:18.793Z,97946.50
2023-10-23T10:45:11.674Z,97932.47
2023-10-23T10:47:44.790Z,97935.22
2023-10-23T10:52:44.926Z,97928.19
2023-10-23T10:55:14.029Z,97916.09
2023-10-23T10:57:46.185Z,97913.41
2023-10-23T11:00:14.178Z,97904.84
2023-10-23T11:02:41.725Z,97906.44
2023-10-23T11:05:12.502Z,97905.31
2023-10-23T11:07:40.113Z,97901.41
2023-10-23T11:10:07.879Z,97903.38
2023-10-23T11:12:35.014Z,97908.47
2023-10-23T11:15:01.861Z,97897.50
2023-10-23T11:17:28.712Z,97884.63
2023-10-23T11:19:55.603Z,97883.44
2023-10-23T11:22:25.603Z,97882.31
2023-10-23T11:24:52.896Z,97870.94
2023-10-23T11:27:19.679Z,97867.81
2023-10-23T11:29:48.378Z,97860.00
2023-10-23T11:32:17.105Z,97849.81
2023-10-23T11:34:44.831Z,97834.19
2023-10-23T11:37:12.942Z,97835.75
2023-10-23T11:39:43.763Z,97824.81
2023-10-23T11:42:11.996Z,97818.53
2023-10-23T11:44:39.078Z,97817.34
2023-10-23T11:47:06.542Z,97828.72
2023-10-23T11:49:33.624Z,97825.59
2023-10-23T11:52:01.498Z,97819.31
2023-10-23T11:54:29.462Z,97809.13
2023-10-23T11:56:59.525Z,97806.00
2023-10-23T11:59:27.565Z,97802.84
2023-10-23T12:01:56.528Z,97792.66
2023-10-23T12:04:24.463Z,97787.16
2023-10-23T12:06:51.393Z,97784.03
2023-10-23T12:09:18.314Z,97778.53
2023-10-23T12:11:45.082Z,97783.22
2023-10-23T12:14:11.887Z,97778.50
2023-10-23T12:16:38.937Z,97764.03
2023-10-23T12:19:05.819Z,97778.09
2023-10-23T12:21:33.453Z,97779.66
2023-10-23T12:24:00.275Z,97781.22
2023-10-23T12:26:27.326Z,97783.19
2023-10-23T12:28:54.134Z,97787.88
2023-10-23T12:31:23.945Z,97795.72
2023-10-23T12:33:52.065Z,97800.41
2023-10-23T12:36:19.160Z,97802.00
2023-10-23T12:38:45.913Z,97804.00
2023-10-23T12:41:13.168Z,97803.22
2023-10-23T12:43:40.207Z,97800.47
2023-10-23T12:46:07.196Z,97789.50
2023-10-23T12:48:34.032Z,97781.69
2023-10-23T12:51:01.278Z,97786.38
2023-10-23T12:53:28.147Z,97773.06
2023-10-23T12:55:54.960Z,97769.56
2023-10-23T12:58:21.766Z,97753.50
2023-10-23T13:00:48.566Z,97743.34
2023-10-23T13:05:46.526Z,97728.03
2023-10-23T13:08:13.297Z,97709.66
2023-10-23T13:10:41.614Z,97705.75
2023-10-23T13:13:08.413Z,97683.84
2023-10-23T13:15:35.392Z,97683.41
2023-10-23T13:18:04.007Z,97681.84
2023-10-23T13:21:29.850Z,97672.44
2023-10-23T13:23:17.578Z,97669.66
2023-10-23T13:25:45.721Z,97667.28
2023-10-23T13:28:18.906Z,97663.34
2023-10-23T13:30:45.729Z,97697.03
2023-10-23T13:33:13.046Z,97682.13
2023-10-23T13:38:12.982Z,97612.41
2023-10-23T13:40:39.752Z,97631.28
2023-10-23T13:43:06.528Z,97627.41
2023-10-23T13:45:33.242Z,97637.13
2023-10-23T13:47:59.958Z,97630.81
2023-10-23T13:50:26.750Z,97622.59
2023-10-23T13:52:53.495Z,97609.28
2023-10-23T13:55:20.959Z,97610.81
2023-10-23T13:57:47.740Z,97607.69
2023-10-23T14:00:17.226Z,97608.44
2023-10-23T14:02:44.379Z,97606.84
2023-10-23T14:05:11.380Z,97609.97
2023-10-23T14:07:38.274Z,97602.06
2023-10-23T14:10:05.627Z,97601.25
2023-10-23T14:12:32.381Z,97592.59
2023-10-23T14:14:59.069Z,97589.88
2023-10-23T14:17:26.419Z,97586.31
2023-10-23T14:19:53.246Z,97582.44
2023-10-23T14:22:20.029Z,97583.13
2023-10-23T14:24:49.295Z,97575.28
2023-10-23T14:27:16.349Z,97564.72
2023-10-23T14:29:43.202Z,97547.84
2023-10-23T14:32:10.213Z,97540.00
2023-10-23T14:34:36.943Z,97547.00
2023-10-23T14:37:04.270Z,97543.84
2023-10-23T14:39:31.145Z,97547.72
2023-10-23T14:41:58.116Z,97549.72
2023-10-23T14:44:25.292Z,97542.22
2023-10-23T14:46:52.949Z,97544.13
2023-10-23T14:49:20.465Z,97539.84
2023-10-23T14:51:47.292Z,97534.00
2023-10-23T14:54:14.046Z,97523.34
2023-10-23T14:56:40.748Z,97519.78
2023-10-23T14:59:07.499Z,97506.84
2023-10-23T15:01:34.601Z,97496.66
2023-10-23T15:06:38.838Z,97496.31
2023-10-23T15:09:06.802Z,97490.03
2023-10-23T15:11:34.057Z,97485.69
2023-10-23T15:14:00.754Z,97491.25
2023-10-23T15:16:27.514Z,97491.25
2023-10-23T15:18:54.644Z,97477.91
2023-10-23T15:21:21.716Z,97472.44
2023-10-23T15:23:48.413Z,97474.06
2023-10-23T15:26:15.142Z,97469.47
2023-10-23T15:28:42.228Z,97462.38
2023-10-23T15:31:09.212Z,97477.69
2023-10-23T15:33:37.230Z,97470.28
2023-10-23T15:36:06.378Z,97469.06
2023-10-23T15:38:34.376Z,97474.34
2023-10-23T15:41:12.188Z,97464.91
2023-10-23T15:43:40.486Z,97447.63
2023-10-23T15:46:13.040Z,97438.19
2023-10-23T15:48:40.814Z,97435.06
2023-10-23T15:51:07.786Z,97433.47
2023-10-23T15:53:35.026Z,97432.28
2023-10-23T15:56:02.026Z,97422.44
2023-10-23T15:58:29.795Z,97429.09
2023-10-23T16:00:58.089Z,97432.28
2023-10-23T16:03:25.232Z,97435.09
2023-10-23T16:05:52.422Z,97438.69
2023-10-23T16:08:19.282Z,97430.03
2023-10-23T16:10:48.726Z,97433.59
2023-10-23T16:13:17.045Z,97432.44
2023-10-23T16:15:44.517Z,97419.44
2023-10-23T16:18:12.347Z,97408.56
2023-10-23T16:20:40.109Z,97404.72
2023-10-23T16:23:06.956Z,97410.63
2023-10-23T16:25:38.506Z,97407.13
2023-10-23T16:28:05.761Z,97399.72
2023-10-23T16:30:32.611Z,97406.31
2023-10-23T16:32:59.444Z,97423.56
2023-10-23T16:35:26.504Z,97445.63
2023-10-23T16:37:53.614Z,97427.97
2023-10-23T16:40:20.399Z,97413.16
2023-10-23T16:42:50.671Z,97399.22
2023-10-23T16:45:17.493Z,97417.59
2023-10-23T16:47:44.286Z,97427.56
2023-10-23T16:50:11.419Z,97427.41
2023-10-23T16:52:38.556Z,97413.34
2023-10-23T16:55:08.764Z,97413.78
2023-10-23T16:57:36.121Z,97413.03
2023-10-23T17:00:02.887Z,97404.47
2023-10-23T17:02:29.847Z,97418.59
2023-10-23T17:04:56.982Z,97410.81
2023-10-23T17:07:24.765Z,97409.31
2023-10-23T17:09:51.496Z,97407.41
2023-10-23T17:12:18.332Z,97406.28
2023-10-23T17:14:45.123Z,97409.03
2023-10-23T17:17:12.262Z,97418.50
2023-10-23T17:19:41.868Z,97412.25
2023-10-23T17:22:09.713Z,97411.09
2023-10-23T17:24:36.765Z,97411.19
2023-10-23T17:27:03.997Z,97409.63
2023-10-23T17:29:31.710Z,97410.03
2023-10-23T17:31:59.318Z,97404.16
2023-10-23T17:34:29.718Z,97404.16
2023-10-23T17:36:57.252Z,97415.16
2023-10-23T17:39:24.098Z,97405.78
2023-10-23T17:41:50.780Z,97408.53
2023-10-23T17:44:17.437Z,97409.59
2023-10-23T17:46:44.240Z,97395.38
2023-10-23T17:49:11.291Z,97400.56
2023-10-23T17:51:37.970Z,97400.56
2023-10-23T17:54:07.210Z,97391.59
2023-10-23T17:56:37.135Z,97394.38
2023-10-23T17:59:04.911Z,97396.75
2023-10-23T18:01:31.959Z,97403.00
2023-10-23T18:03:59.905Z,97402.22
2023-10-23T18:06:27.351Z,97413.19
2023-10-23T18:08:54.569Z,97416.34
2023-10-23T18:11:21.591Z,97415.50
2023-10-23T18:13:48.375Z,97429.25
2023-10-23T18:16:15.305Z,97435.09
2023-10-23T18:18:42.227Z,97430.41
2023-10-23T18:21:08.945Z,97437.41
2023-10-23T18:23:35.768Z,97438.97
2023-10-23T18:26:02.642Z,97439.00
2023-10-23T18:28:29.730Z,97436.59
2023-10-23T18:31:00.995Z,97432.63
2023-10-23T18:33:27.967Z,97429.47
2023-10-23T18:36:01.485Z,97432.28
2023-10-23T18:38:28.707Z,97434.16
2023-10-23T18:40:56.219Z,97439.72
2023-10-23T18:43:26.077Z,97429.53
2023-10-23T18:45:52.909Z,97448.28
2023-10-23T18:48:19.858Z,97465.53
2023-10-23T18:50:46.715Z,97473.34
2023-10-23T18:53:13.479Z,97458.44
2023-10-23T18:55:40.310Z,97474.06
2023-10-23T18:58:07.045Z,97485.78
2023-10-23T19:03:12.035Z,97471.69
2023-10-23T19:05:39.448Z,97471.31
2023-10-23T19:08:06.707Z,97489.34
2023-10-23T19:10:33.462Z,97500.69
2023-10-23T19:13:00.304Z,97499.19
2023-10-23T19:15:27.033Z,97514.09
2023-10-23T19:17:55.212Z,97522.69
2023-10-23T19:20:23.888Z,97521.06
2023-10-23T19:22:51.030Z,97508.13
2023-10-23T19:25:18.497Z,97516.78
2023-10-23T19:27:45.634Z,97524.22
2023-10-23T19:30:13.645Z,97518.34
2023-10-23T19:32:42.173Z,97502.31
2023-10-23T19:35:10.773Z,97514.84
2023-10-23T19:37:38.856Z,97503.09
2023-10-23T19:40:06.285Z,97501.56
2023-10-23T19:42:40.551Z,97497.66
2023-10-23T19:45:09.236Z,97510.16
2023-10-23T19:47:36.919Z,97511.38
2023-10-23T19:50:05.045Z,97523.91
2023-10-23T19:52:35.719Z,97534.50
2023-10-23T19:55:04.365Z,97555.22
2023-10-23T19:57:50.059Z,97552.44
2023-10-23T20:00:18.213Z,97549.28
2023-10-23T20:02:45.034Z,97560.28
2023-10-23T20:05:11.805Z,97560.69
2023-10-23T20:07:38.702Z,97556.72
2023-10-23T20:10:06.637Z,97562.66
2023-10-23T20:12:33.501Z,97552.47
2023-10-23T20:15:00.275Z,97561.06
2023-10-23T20:17:27.099Z,97561.88
2023-10-23T20:19:54.316Z,97558.75
2023-10-23T20:22:21.119Z,97563.84
2023-10-23T20:24:47.789Z,97584.63
2023-10-23T20:27:14.935Z,97595.56
2023-10-23T20:29:41.904Z,97577.50
2023-10-23T20:32:09.053Z,97570.13
2023-10-23T20:34:35.873Z,97547.69
2023-10-23T20:37:03.127Z,97535.97
2023-10-23T20:39:29.993Z,97540.66
2023-10-23T20:44:28.939Z,97534.00
2023-10-23T20:49:22.477Z,97533.69
2023-10-23T20:51:49.357Z,97523.13
2023-10-23T20:54:16.064Z,97519.63
2023-10-23T20:56:43.086Z,97508.75
2023-10-23T20:59:10.188Z,97512.59
2023-10-23T21:01:37.353Z,97509.81
2023-10-23T21:04:04.719Z,97496.53
2023-10-23T21:06:32.284Z,97510.66
2023-10-23T21:08:58.970Z,97525.91
2023-10-23T21:11:25.770Z,97533.72
2023-10-23T21:13:52.486Z,97536.84
2023-10-23T21:16:19.385Z,97525.91
2023-10-23T21:18:46.219Z,97515.69
2023-10-23T21:21:12.924Z,97507.50
2023-10-23T21:23:39.627Z,97490.31
2023-10-23T21:26:07.928Z,97482.16
2023-10-23T21:28:34.755Z,97488.41
2023-10-23T21:33:34.277Z,97481.38
2023-10-23T21:36:00.994Z,97483.78
2023-10-23T21:38:28.196Z,97493.91
2023-10-23T21:40:55.053Z,97505.66
2023-10-23T21:43:21.814Z,97519.72
2023-10-23T21:45:55.929Z,97522.09
2023-10-23T21:48:28.901Z,97525.19
2023-10-23T21:50:55.815Z,97529.06
2023-10-23T21:53:22.819Z,97511.81
2023-10-23T21:55:49.862Z,97496.97
2023-10-23T21:58:16.780Z,97482.84
2023-10-23T22:00:44.387Z,97486.00
2023-10-23T22:03:11.254Z,97482.13
2023-10-23T22:05:38.308Z,97487.59
2023-10-23T22:08:05.348Z,97491.53
2023-10-23T22:10:32.378Z,97496.22
2023-10-23T22:13:00.017Z,97491.84
2023-10-23T22:15:26.788Z,97515.34
2023-10-23T22:17:56.372Z,97498.97
2023-10-23T22:25:25.703Z,97526.34
2023-10-23T22:27:52.606Z,97519.22
2023-10-23T22:30:19.330Z,97521.22
2023-10-23T22:32:51.767Z,97509.81
2023-10-23T22:35:24.081Z,97491.47
2023-10-23T22:38:05.902Z,97482.50
2023-10-23T22:40:37.474Z,97479.44
2023-10-23T22:43:04.315Z,97466.19
2023-10-23T22:45:31.120Z,97466.63
2023-10-23T22:47:57.893Z,97452.59
2023-10-23T22:50:25.210Z,97455.75
2023-10-23T22:52:52.199Z,97453.41
2023-10-23T22:55:19.273Z,97446.34
2023-10-23T22:57:46.768Z,97445.97
2023-10-23T23:00:15.507Z,97447.91
2023-10-23T23:02:42.506Z,97445.53
2023-10-23T23:05:09.775Z,97440.84
2023-10-23T23:07:41.182Z,97435.38
2023-10-23T23:10:10.861Z,97426.41
2023-10-23T23:12:37.902Z,97445.53
2023-10-23T23:20:22.212Z,97443.97
2023-10-23T23:22:49.184Z,97459.59
2023-10-23T23:25:16.062Z,97453.31
2023-10-23T23:27:42.751Z,97462.72
2023-10-23T23:30:10.796Z,97460.75
2023-10-23T23:32:37.761Z,97468.16
2023-10-23T23:35:04.936Z,97472.06
2023-10-23T23:37:31.805Z,97472.47
2023-10-23T23:39:58.579Z,97470.91
2023-10-23T23:42:25.250Z,97468.53
2023-10-23T23:44:52.317Z,97453.66
2023-10-23T23:47:18.985Z,97443.06
2023-10-23T23:49:47.026Z,97437.63
2023-10-23T23:52:15.187Z,97435.31
2023-10-23T23:54:42.472Z,97438.44
2023-10-23T23:57:09.502Z,97444.69
2023-10-23T23:59:36.292Z,97445.50
